Rm Cauca — HKRV8 — position and weather

sailwx.info

Track history (hours):
 
Tides and Currents Weather Stations Pressure Air Temp Water Temp Dewpoint Dewpoint Depression Visibility Wind Speed Wind Dir Waves Ship Positions

Rm Cauca

Last reported at 2018-Apr-26 02:07 UTC. Time now 2018-Apr-26 06:03 UTC.
Position N 10°58' W 074°46'.

Length 32 m.

Type: Tug. MMSI: 730151688.

Date/timePositionNaut miles runAvg speedWind from/ knotsBaromVisibWave heightAir tempDewpointWater temp
2018-Apr-26 02:07N 10°58' W 074°46'0 0.0
2018-Apr-26 01:47N 10°58' W 074°46'0 0.0
2018-Apr-26 01:19N 10°58' W 074°46'0 0.0
2018-Apr-26 01:00N 10°58' W 074°46'0 0.0
2018-Apr-25 22:23N 10°58' W 074°46'0 0.0
2018-Apr-25 21:59N 10°58' W 074°46'0 0.0
2018-Apr-25 14:05N 10°58' W 074°46'0 0.0
2018-Apr-25 14:00N 10°58' W 074°46'0 0.0
2018-Apr-25 13:30N 10°58' W 074°46'1 1.1
2018-Apr-25 12:34N 10°59' W 074°46'0 0.7
2018-Apr-25 12:30N 10°59' W 074°46'0 0.1
2018-Apr-25 04:35N 10°59' W 074°45'0 0.1
2018-Apr-25 04:19N 10°59' W 074°45'0 0.6
2018-Apr-25 03:56N 10°59' W 074°46'0 0.2
2018-Apr-25 02:45N 10°59' W 074°45'0 0.0
2018-Apr-25 02:29N 10°59' W 074°45'0 0.0
2018-Apr-25 02:00N 10°59' W 074°45'0 0.5
2018-Apr-25 01:29N 10°59' W 074°45'0 0.2
2018-Apr-25 01:00N 10°59' W 074°45'0 0.7
2018-Apr-25 00:30N 10°58' W 074°46'0 0.0
2018-Apr-24 23:58N 10°58' W 074°46'1 1.4
2018-Apr-24 23:30N 10°58' W 074°45'0 0.0
2018-Apr-24 23:00N 10°58' W 074°45'1 2.2
2018-Apr-24 22:30N 10°59' W 074°45'1 1.6
2018-Apr-24 22:00N 10°58' W 074°46'0 0.6
2018-Apr-24 21:30N 10°58' W 074°46'0 0.0
2018-Apr-24 21:00N 10°58' W 074°46'0 0.0
2018-Apr-24 20:30N 10°58' W 074°46'4 8.6
2018-Apr-24 20:00N 11°02' W 074°48'1 2.2
2018-Apr-24 19:30N 11°02' W 074°49'3 6.0
2018-Apr-24 19:00N 11°01' W 074°46'3 5.4
2018-Apr-24 18:30N 10°58' W 074°46'0 0.0
2018-Apr-24 18:00N 10°58' W 074°46'0 0.0
2018-Apr-24 17:30N 10°58' W 074°46'0 0.0
2018-Apr-24 17:00N 10°58' W 074°46'0 0.0
2018-Apr-24 16:31N 10°58' W 074°46'0 0.0
2018-Apr-24 15:59N 10°58' W 074°46'1 2.3
2018-Apr-24 15:30N 10°57' W 074°46'0 0.3
2018-Apr-24 14:59N 10°57' W 074°45'1 1.8
2018-Apr-24 14:28N 10°58' W 074°45'3 6.7
2018-Apr-24 13:58N 11°01' W 074°47'3 1.8
2018-Apr-24 12:28N 11°03' W 074°49'0 1.0
2018-Apr-24 12:00N 11°03' W 074°50'3 4.6
2018-Apr-24 11:27N 11°02' W 074°47'4 8.5
2018-Apr-24 11:00N 10°58' W 074°46'0 0.0
2018-Apr-24 10:30N 10°58' W 074°46'0 0.0
2018-Apr-24 09:59N 10°58' W 074°46'0 0.0
2018-Apr-24 09:30N 10°58' W 074°46'0 0.0
2018-Apr-24 09:00N 10°58' W 074°46'0 0.0
2018-Apr-24 08:30N 10°58' W 074°46'0 0.0
2018-Apr-24 08:00N 10°58' W 074°46'0 0.0
2018-Apr-24 07:30N 10°58' W 074°46'0 0.0
2018-Apr-24 06:59N 10°58' W 074°46'0 0.0
2018-Apr-24 06:30N 10°58' W 074°46'0 0.0
2018-Apr-24 06:00N 10°58' W 074°46'0 0.0
2018-Apr-24 05:30N 10°58' W 074°46'0 0.0
2018-Apr-24 05:00N 10°58' W 074°46'0 0.0
2018-Apr-24 04:30N 10°58' W 074°46'0 0.0
2018-Apr-24 04:00N 10°58' W 074°46'0 0.0
2018-Apr-24 03:30N 10°58' W 074°46'0 0.0
2018-Apr-24 03:00N 10°58' W 074°46'0 0.0
2018-Apr-24 02:30N 10°58' W 074°46'0 0.0
2018-Apr-24 01:59N 10°58' W 074°46'0 0.0
2018-Apr-24 01:30N 10°58' W 074°46'0 0.0
2018-Apr-24 01:01N 10°58' W 074°46'0 0.0
2018-Apr-24 00:30N 10°58' W 074°46'0 0.0
2018-Apr-24 00:00N 10°58' W 074°46'0 0.0
2018-Apr-23 23:30N 10°58' W 074°46'0 0.0
2018-Apr-23 23:00N 10°58' W 074°46'0 0.0
2018-Apr-23 22:30N 10°58' W 074°46'0 0.0
2018-Apr-23 21:59N 10°58' W 074°46'0 0.0
2018-Apr-23 21:29N 10°58' W 074°46'0 0.0
2018-Apr-23 21:00N 10°58' W 074°46'0 0.0
2018-Apr-23 20:30N 10°58' W 074°46'0 0.0
2018-Apr-23 19:59N 10°58' W 074°46'0 0.0
2018-Apr-23 19:31N 10°58' W 074°46'0 0.7
2018-Apr-23 18:59N 10°59' W 074°45'0 0.7
2018-Apr-23 18:31N 10°58' W 074°46'0 0.0
2018-Apr-23 17:58N 10°58' W 074°46'0 0.0
2018-Apr-23 17:30N 10°58' W 074°46'0 0.0
2018-Apr-23 17:00N 10°58' W 074°46'0 0.0
2018-Apr-23 16:30N 10°58' W 074°46'0 0.0
2018-Apr-23 16:00N 10°58' W 074°46'0 0.0
2018-Apr-23 15:29N 10°58' W 074°46'0 0.0
2018-Apr-23 15:00N 10°58' W 074°46'0 0.0
2018-Apr-23 14:30N 10°58' W 074°46'0 0.0
2018-Apr-23 14:00N 10°58' W 074°46'0 0.0
2018-Apr-23 13:30N 10°58' W 074°46'0 0.0
2018-Apr-23 13:00N 10°58' W 074°46'0 0.0
2018-Apr-23 12:30N 10°58' W 074°46'0 0.0
2018-Apr-23 12:00N 10°58' W 074°46'0 0.0
2018-Apr-23 11:30N 10°58' W 074°46'0 0.0
2018-Apr-23 11:00N 10°58' W 074°46'0 0.0
2018-Apr-23 10:30N 10°58' W 074°46'0 0.0
2018-Apr-23 10:00N 10°58' W 074°46'0 0.0
2018-Apr-23 09:30N 10°58' W 074°46'0 0.0
2018-Apr-23 09:00N 10°58' W 074°46'0 0.0
2018-Apr-23 08:30N 10°58' W 074°46'0 0.0
2018-Apr-23 08:00N 10°58' W 074°46'0 0.0
2018-Apr-23 07:31N 10°58' W 074°46'0 0.0
2018-Apr-23 07:00N 10°58' W 074°46'0 0.0
2018-Apr-23 06:29N 10°58' W 074°46'0 0.0
2018-Apr-23 06:00N 10°58' W 074°46'0 0.0
2018-Apr-23 05:30N 10°58' W 074°46'0 0.0
2018-Apr-23 04:58N 10°58' W 074°46'0 0.0
2018-Apr-23 04:30N 10°58' W 074°46'0 0.0
2018-Apr-23 04:00N 10°58' W 074°46'1 1.0
2018-Apr-23 03:29N 10°59' W 074°45'1 1.3
2018-Apr-23 02:59N 10°58' W 074°45'0 0.4
2018-Apr-23 02:29N 10°58' W 074°46'3 5.9
2018-Apr-23 02:00N 11°01' W 074°47'3 0.7
2018-Apr-22 22:05N 11°03' W 074°49'1 0.4
2018-Apr-22 20:56N 11°02' W 074°49'2 4.9
2018-Apr-22 20:31N 11°01' W 074°47'3 6.3
2018-Apr-22 20:00N 10°58' W 074°46'0 0.0
2018-Apr-22 19:30N 10°58' W 074°46'0 0.0
2018-Apr-22 19:00N 10°58' W 074°46'0 0.0
2018-Apr-22 18:30N 10°58' W 074°46'0 0.0
2018-Apr-22 18:00N 10°58' W 074°46'0 0.0
2018-Apr-22 17:30N 10°58' W 074°46'0 0.0
2018-Apr-22 17:00N 10°58' W 074°46'1 1.1
2018-Apr-22 16:30N 10°58' W 074°45'0 0.1
2018-Apr-22 16:00N 10°58' W 074°46'0 0.0
2018-Apr-22 15:29N 10°58' W 074°46'1 1.1
2018-Apr-22 15:00N 10°58' W 074°46'0 0.0
2018-Apr-22 13:06N 10°58' W 074°46'0 0.0
2018-Apr-21 22:59N 10°58' W 074°46'0 0.0
2018-Apr-21 22:30N 10°58' W 074°46'0 0.0
2018-Apr-21 22:00N 10°58' W 074°46'0 0.0
2018-Apr-21 21:30N 10°58' W 074°46'0 0.0
2018-Apr-21 12:43N 10°58' W 074°46'0 0.0
2018-Apr-21 12:28N 10°58' W 074°46'0 0.0
2018-Apr-21 11:52N 10°58' W 074°46'1 0.1
2018-Apr-21 06:44N 10°59' W 074°45'1 0.3
2018-Apr-21 02:00N 10°58' W 074°45'1 1.1
2018-Apr-21 01:30N 10°57' W 074°45'1 2.4
2018-Apr-21 01:00N 10°58' W 074°46'0 0.0
2018-Apr-21 00:30N 10°58' W 074°46'0 0.0
2018-Apr-20 23:59N 10°58' W 074°46'6 0.6
2018-Apr-20 14:46N 11°02' W 074°49'0 1.2
2018-Apr-20 14:30N 11°02' W 074°49'1 1.6
2018-Apr-20 13:58N 11°03' W 074°50'1 2.4
2018-Apr-20 13:30N 11°02' W 074°49'4 7.9
2018-Apr-20 12:59N 10°60' W 074°46'1 1.4
2018-Apr-20 12:07N 10°58' W 074°46'0 0.2
2018-Apr-20 12:00N 10°58' W 074°46'0 0.0
2018-Apr-20 10:28N 10°58' W 074°46'0 0.0
2018-Apr-20 09:59N 10°58' W 074°46'0 0.0
2018-Apr-20 09:30N 10°58' W 074°46'0 0.0
2018-Apr-20 09:00N 10°58' W 074°46'0 0.0
2018-Apr-20 08:28N 10°58' W 074°46'0 0.0
2018-Apr-20 07:59N 10°58' W 074°46'0 0.0
2018-Apr-20 07:29N 10°58' W 074°46'0 0.0
2018-Apr-20 07:00N 10°58' W 074°46'0 0.0
2018-Apr-20 06:30N 10°58' W 074°46'0 0.0
2018-Apr-20 05:57N 10°58' W 074°46'0 0.0
2018-Apr-20 04:16N 10°58' W 074°46'4 0.6
2018-Apr-19 21:11N 11°02' W 074°48'4 0.7
2018-Apr-19 15:54N 10°59' W 074°45'3 8.7
2018-Apr-19 15:30N 11°01' W 074°47'2 2.8
2018-Apr-19 14:48N 11°02' W 074°49'0 1.4
2018-Apr-19 14:29N 11°03' W 074°49'2 3.1
2018-Apr-19 14:00N 11°02' W 074°48'4 9.0
2018-Apr-19 13:30N 10°58' W 074°46'0 0.0
2018-Apr-19 13:00N 10°58' W 074°46'0 0.0
2018-Apr-19 12:30N 10°58' W 074°46'0 0.0
2018-Apr-19 11:59N 10°58' W 074°46'0 0.0
2018-Apr-19 11:30N 10°58' W 074°46'0 0.0
2018-Apr-19 11:00N 10°58' W 074°46'0 0.0
2018-Apr-19 10:30N 10°58' W 074°46'0 0.0
2018-Apr-19 10:00N 10°58' W 074°46'0 0.0
2018-Apr-19 09:30N 10°58' W 074°46'4 6.8
2018-Apr-19 08:58N 11°01' W 074°47'2 2.7
2018-Apr-19 08:24N 11°02' W 074°49'511.7
2018-Apr-19 07:58N 10°58' W 074°46'0 0.0
2018-Apr-19 07:30N 10°58' W 074°46'0 0.0
2018-Apr-19 07:00N 10°58' W 074°46'0 0.0
2018-Apr-19 06:30N 10°58' W 074°46'0 0.0
2018-Apr-19 06:01N 10°58' W 074°46'0 0.0
2018-Apr-19 05:30N 10°58' W 074°46'0 0.0
2018-Apr-19 05:00N 10°58' W 074°46'0 0.0
2018-Apr-19 04:30N 10°58' W 074°46'0 0.0
2018-Apr-19 04:00N 10°58' W 074°46'0 0.0
2018-Apr-19 03:31N 10°58' W 074°46'0 0.0
2018-Apr-19 03:00N 10°58' W 074°46'3 6.8
2018-Apr-19 02:31N 11°01' W 074°47'1 2.1
2018-Apr-19 02:00N 11°02' W 074°48'0 0.8
2018-Apr-19 01:30N 11°02' W 074°48'4 8.0
2018-Apr-19 01:00N 10°58' W 074°46'0 0.0
2018-Apr-19 00:30N 10°58' W 074°46'0 0.0
2018-Apr-19 00:00N 10°58' W 074°46'0 0.0
2018-Apr-18 23:30N 10°58' W 074°46'0 0.0
2018-Apr-18 23:00N 10°58' W 074°46'0 0.0
2018-Apr-18 22:30N 10°58' W 074°46'0 0.0
2018-Apr-18 22:00N 10°58' W 074°46'0 0.7
2018-Apr-18 21:30N 10°58' W 074°46'0 0.6
2018-Apr-18 21:00N 10°58' W 074°46'0 0.0
2018-Apr-18 20:30N 10°58' W 074°46'0 0.0
2018-Apr-18 20:00N 10°58' W 074°46'0 0.0
2018-Apr-18 19:30N 10°58' W 074°46'0 0.0
2018-Apr-18 19:01N 10°58' W 074°46'0 0.0
2018-Apr-18 18:29N 10°58' W 074°46'0 0.0
2018-Apr-18 18:00N 10°58' W 074°46'0 0.0
2018-Apr-18 17:30N 10°58' W 074°46'0 0.0
2018-Apr-18 17:00N 10°58' W 074°46'0 0.0
2018-Apr-18 16:30N 10°58' W 074°46'0 0.0
2018-Apr-18 16:00N 10°58' W 074°46'0 0.0
2018-Apr-18 15:30N 10°58' W 074°46'0 0.0
2018-Apr-18 15:00N 10°58' W 074°46'0 0.0
2018-Apr-18 14:31N 10°58' W 074°46'0 0.1
2018-Apr-18 14:01N 10°58' W 074°45'0 0.7
2018-Apr-18 13:30N 10°58' W 074°45'1 1.4
2018-Apr-18 13:00N 10°59' W 074°45'0 0.8
2018-Apr-18 12:30N 10°58' W 074°46'0 0.0
2018-Apr-18 12:00N 10°58' W 074°46'0 0.0
2018-Apr-18 11:30N 10°58' W 074°46'0 0.0
2018-Apr-18 10:51N 10°58' W 074°46'0 0.0
2018-Apr-18 10:30N 10°58' W 074°46'0 0.0
2018-Apr-18 10:00N 10°58' W 074°46'0 0.0
2018-Apr-18 09:28N 10°58' W 074°46'0 0.0
2018-Apr-18 09:00N 10°58' W 074°46'0 0.0
2018-Apr-18 08:29N 10°58' W 074°46'0 0.0
2018-Apr-18 06:17N 10°58' W 074°46'0 0.0
2018-Apr-18 06:00N 10°58' W 074°46'0 0.0
2018-Apr-18 05:23N 10°58' W 074°46'0 0.0
2018-Apr-18 04:55N 10°58' W 074°46'0 0.0
2018-Apr-18 04:28N 10°58' W 074°46'0 0.0
2018-Apr-18 02:56N 10°58' W 074°46'1 0.1
2018-Apr-17 18:07N 10°60' W 074°46'0 0.0
2018-Apr-17 17:46N 10°60' W 074°46'0 1.5
2018-Apr-17 17:27N 10°60' W 074°46'1 3.2
2018-Apr-17 17:00N 10°59' W 074°45'0 0.4
2018-Apr-17 16:14N 10°59' W 074°45'0 0.4
2018-Apr-17 16:00N 10°59' W 074°45'1 1.1
2018-Apr-17 15:29N 10°58' W 074°45'2 0.4
2018-Apr-17 09:58N 11°01' W 074°46'2 0.1
2018-Apr-16 12:45N 10°59' W 074°45'0 0.1
2018-Apr-16 09:32N 10°58' W 074°46'0 0.0
2018-Apr-16 09:28N 10°58' W 074°46'0 0.0
2018-Apr-16 08:56N 10°58' W 074°46'0 0.0
2018-Apr-16 08:20N 10°58' W 074°46'0 0.0
2018-Apr-16 08:00N 10°58' W 074°46'0 0.0
2018-Apr-16 07:29N 10°58' W 074°46'0 0.0
2018-Apr-16 07:00N 10°58' W 074°46'0 0.0
2018-Apr-16 05:13N 10°58' W 074°46'0 0.0
2018-Apr-16 05:00N 10°58' W 074°46'0 0.0
2018-Apr-16 04:28N 10°58' W 074°46'0 0.0
2018-Apr-16 03:57N 10°58' W 074°46'0 0.0
2018-Apr-16 03:29N 10°58' W 074°46'0 0.0
2018-Apr-16 02:56N 10°58' W 074°46'0 0.0
2018-Apr-16 02:20N 10°58' W 074°46'  
Track history (hours):
 
Tides and Currents Weather Stations Pressure Air Temp Water Temp Dewpoint Dewpoint Depression Visibility Wind Speed Wind Dir Waves Ship Positions

Rm Cauca

Last reported at 2018-Apr-26 02:07 UTC. Time now 2018-Apr-26 06:03 UTC.
Position N 10°58' W 074°46'.

Length 32 m.

Type: Tug. MMSI: 730151688.

Date/timePositionNaut miles runAvg speedWind from/ knotsBaromVisibWave heightAir tempDewpointWater temp
2018-Apr-26 02:07N 10°58' W 074°46'0 0.0
2018-Apr-26 01:47N 10°58' W 074°46'0 0.0
2018-Apr-26 01:19N 10°58' W 074°46'0 0.0
2018-Apr-26 01:00N 10°58' W 074°46'0 0.0
2018-Apr-25 22:23N 10°58' W 074°46'0 0.0
2018-Apr-25 21:59N 10°58' W 074°46'0 0.0
2018-Apr-25 14:05N 10°58' W 074°46'0 0.0
2018-Apr-25 14:00N 10°58' W 074°46'0 0.0
2018-Apr-25 13:30N 10°58' W 074°46'1 1.1
2018-Apr-25 12:34N 10°59' W 074°46'0 0.7
2018-Apr-25 12:30N 10°59' W 074°46'0 0.1
2018-Apr-25 04:35N 10°59' W 074°45'0 0.1
2018-Apr-25 04:19N 10°59' W 074°45'0 0.6
2018-Apr-25 03:56N 10°59' W 074°46'0 0.2
2018-Apr-25 02:45N 10°59' W 074°45'0 0.0
2018-Apr-25 02:29N 10°59' W 074°45'0 0.0
2018-Apr-25 02:00N 10°59' W 074°45'0 0.5
2018-Apr-25 01:29N 10°59' W 074°45'0 0.2
2018-Apr-25 01:00N 10°59' W 074°45'0 0.7
2018-Apr-25 00:30N 10°58' W 074°46'0 0.0
2018-Apr-24 23:58N 10°58' W 074°46'1 1.4
2018-Apr-24 23:30N 10°58' W 074°45'0 0.0
2018-Apr-24 23:00N 10°58' W 074°45'1 2.2
2018-Apr-24 22:30N 10°59' W 074°45'1 1.6
2018-Apr-24 22:00N 10°58' W 074°46'0 0.6
2018-Apr-24 21:30N 10°58' W 074°46'0 0.0
2018-Apr-24 21:00N 10°58' W 074°46'0 0.0
2018-Apr-24 20:30N 10°58' W 074°46'4 8.6
2018-Apr-24 20:00N 11°02' W 074°48'1 2.2
2018-Apr-24 19:30N 11°02' W 074°49'3 6.0
2018-Apr-24 19:00N 11°01' W 074°46'3 5.4
2018-Apr-24 18:30N 10°58' W 074°46'0 0.0
2018-Apr-24 18:00N 10°58' W 074°46'0 0.0
2018-Apr-24 17:30N 10°58' W 074°46'0 0.0
2018-Apr-24 17:00N 10°58' W 074°46'0 0.0
2018-Apr-24 16:31N 10°58' W 074°46'0 0.0
2018-Apr-24 15:59N 10°58' W 074°46'1 2.3
2018-Apr-24 15:30N 10°57' W 074°46'0 0.3
2018-Apr-24 14:59N 10°57' W 074°45'1 1.8
2018-Apr-24 14:28N 10°58' W 074°45'3 6.7
2018-Apr-24 13:58N 11°01' W 074°47'3 1.8
2018-Apr-24 12:28N 11°03' W 074°49'0 1.0
2018-Apr-24 12:00N 11°03' W 074°50'3 4.6
2018-Apr-24 11:27N 11°02' W 074°47'4 8.5
2018-Apr-24 11:00N 10°58' W 074°46'0 0.0
2018-Apr-24 10:30N 10°58' W 074°46'0 0.0
2018-Apr-24 09:59N 10°58' W 074°46'0 0.0
2018-Apr-24 09:30N 10°58' W 074°46'0 0.0
2018-Apr-24 09:00N 10°58' W 074°46'0 0.0
2018-Apr-24 08:30N 10°58' W 074°46'0 0.0
2018-Apr-24 08:00N 10°58' W 074°46'0 0.0
2018-Apr-24 07:30N 10°58' W 074°46'0 0.0
2018-Apr-24 06:59N 10°58' W 074°46'0 0.0
2018-Apr-24 06:30N 10°58' W 074°46'0 0.0
2018-Apr-24 06:00N 10°58' W 074°46'0 0.0
2018-Apr-24 05:30N 10°58' W 074°46'0 0.0
2018-Apr-24 05:00N 10°58' W 074°46'0 0.0
2018-Apr-24 04:30N 10°58' W 074°46'0 0.0
2018-Apr-24 04:00N 10°58' W 074°46'0 0.0
2018-Apr-24 03:30N 10°58' W 074°46'0 0.0
2018-Apr-24 03:00N 10°58' W 074°46'0 0.0
2018-Apr-24 02:30N 10°58' W 074°46'0 0.0
2018-Apr-24 01:59N 10°58' W 074°46'0 0.0
2018-Apr-24 01:30N 10°58' W 074°46'0 0.0
2018-Apr-24 01:01N 10°58' W 074°46'0 0.0
2018-Apr-24 00:30N 10°58' W 074°46'0 0.0
2018-Apr-24 00:00N 10°58' W 074°46'0 0.0
2018-Apr-23 23:30N 10°58' W 074°46'0 0.0
2018-Apr-23 23:00N 10°58' W 074°46'0 0.0
2018-Apr-23 22:30N 10°58' W 074°46'0 0.0
2018-Apr-23 21:59N 10°58' W 074°46'0 0.0
2018-Apr-23 21:29N 10°58' W 074°46'0 0.0
2018-Apr-23 21:00N 10°58' W 074°46'0 0.0
2018-Apr-23 20:30N 10°58' W 074°46'0 0.0
2018-Apr-23 19:59N 10°58' W 074°46'0 0.0
2018-Apr-23 19:31N 10°58' W 074°46'0 0.7
2018-Apr-23 18:59N 10°59' W 074°45'0 0.7
2018-Apr-23 18:31N 10°58' W 074°46'0 0.0
2018-Apr-23 17:58N 10°58' W 074°46'0 0.0
2018-Apr-23 17:30N 10°58' W 074°46'0 0.0
2018-Apr-23 17:00N 10°58' W 074°46'0 0.0
2018-Apr-23 16:30N 10°58' W 074°46'0 0.0
2018-Apr-23 16:00N 10°58' W 074°46'0 0.0
2018-Apr-23 15:29N 10°58' W 074°46'0 0.0
2018-Apr-23 15:00N 10°58' W 074°46'0 0.0
2018-Apr-23 14:30N 10°58' W 074°46'0 0.0
2018-Apr-23 14:00N 10°58' W 074°46'0 0.0
2018-Apr-23 13:30N 10°58' W 074°46'0 0.0
2018-Apr-23 13:00N 10°58' W 074°46'0 0.0
2018-Apr-23 12:30N 10°58' W 074°46'0 0.0
2018-Apr-23 12:00N 10°58' W 074°46'0 0.0
2018-Apr-23 11:30N 10°58' W 074°46'0 0.0
2018-Apr-23 11:00N 10°58' W 074°46'0 0.0
2018-Apr-23 10:30N 10°58' W 074°46'0 0.0
2018-Apr-23 10:00N 10°58' W 074°46'0 0.0
2018-Apr-23 09:30N 10°58' W 074°46'0 0.0
2018-Apr-23 09:00N 10°58' W 074°46'0 0.0
2018-Apr-23 08:30N 10°58' W 074°46'0 0.0
2018-Apr-23 08:00N 10°58' W 074°46'0 0.0
2018-Apr-23 07:31N 10°58' W 074°46'0 0.0
2018-Apr-23 07:00N 10°58' W 074°46'0 0.0
2018-Apr-23 06:29N 10°58' W 074°46'0 0.0
2018-Apr-23 06:00N 10°58' W 074°46'0 0.0
2018-Apr-23 05:30N 10°58' W 074°46'0 0.0
2018-Apr-23 04:58N 10°58' W 074°46'0 0.0
2018-Apr-23 04:30N 10°58' W 074°46'0 0.0
2018-Apr-23 04:00N 10°58' W 074°46'1 1.0
2018-Apr-23 03:29N 10°59' W 074°45'1 1.3
2018-Apr-23 02:59N 10°58' W 074°45'0 0.4
2018-Apr-23 02:29N 10°58' W 074°46'3 5.9
2018-Apr-23 02:00N 11°01' W 074°47'3 0.7
2018-Apr-22 22:05N 11°03' W 074°49'1 0.4
2018-Apr-22 20:56N 11°02' W 074°49'2 4.9
2018-Apr-22 20:31N 11°01' W 074°47'3 6.3
2018-Apr-22 20:00N 10°58' W 074°46'0 0.0
2018-Apr-22 19:30N 10°58' W 074°46'0 0.0
2018-Apr-22 19:00N 10°58' W 074°46'0 0.0
2018-Apr-22 18:30N 10°58' W 074°46'0 0.0
2018-Apr-22 18:00N 10°58' W 074°46'0 0.0
2018-Apr-22 17:30N 10°58' W 074°46'0 0.0
2018-Apr-22 17:00N 10°58' W 074°46'1 1.1
2018-Apr-22 16:30N 10°58' W 074°45'0 0.1
2018-Apr-22 16:00N 10°58' W 074°46'0 0.0
2018-Apr-22 15:29N 10°58' W 074°46'1 1.1
2018-Apr-22 15:00N 10°58' W 074°46'0 0.0
2018-Apr-22 13:06N 10°58' W 074°46'0 0.0
2018-Apr-21 22:59N 10°58' W 074°46'0 0.0
2018-Apr-21 22:30N 10°58' W 074°46'0 0.0
2018-Apr-21 22:00N 10°58' W 074°46'0 0.0
2018-Apr-21 21:30N 10°58' W 074°46'0 0.0
2018-Apr-21 12:43N 10°58' W 074°46'0 0.0
2018-Apr-21 12:28N 10°58' W 074°46'0 0.0
2018-Apr-21 11:52N 10°58' W 074°46'1 0.1
2018-Apr-21 06:44N 10°59' W 074°45'1 0.3
2018-Apr-21 02:00N 10°58' W 074°45'1 1.1
2018-Apr-21 01:30N 10°57' W 074°45'1 2.4
2018-Apr-21 01:00N 10°58' W 074°46'0 0.0
2018-Apr-21 00:30N 10°58' W 074°46'0 0.0
2018-Apr-20 23:59N 10°58' W 074°46'6 0.6
2018-Apr-20 14:46N 11°02' W 074°49'0 1.2
2018-Apr-20 14:30N 11°02' W 074°49'1 1.6
2018-Apr-20 13:58N 11°03' W 074°50'1 2.4
2018-Apr-20 13:30N 11°02' W 074°49'4 7.9
2018-Apr-20 12:59N 10°60' W 074°46'1 1.4
2018-Apr-20 12:07N 10°58' W 074°46'0 0.2
2018-Apr-20 12:00N 10°58' W 074°46'0 0.0
2018-Apr-20 10:28N 10°58' W 074°46'0 0.0
2018-Apr-20 09:59N 10°58' W 074°46'0 0.0
2018-Apr-20 09:30N 10°58' W 074°46'0 0.0
2018-Apr-20 09:00N 10°58' W 074°46'0 0.0
2018-Apr-20 08:28N 10°58' W 074°46'0 0.0
2018-Apr-20 07:59N 10°58' W 074°46'0 0.0
2018-Apr-20 07:29N 10°58' W 074°46'0 0.0
2018-Apr-20 07:00N 10°58' W 074°46'0 0.0
2018-Apr-20 06:30N 10°58' W 074°46'0 0.0
2018-Apr-20 05:57N 10°58' W 074°46'0 0.0
2018-Apr-20 04:16N 10°58' W 074°46'4 0.6
2018-Apr-19 21:11N 11°02' W 074°48'4 0.7
2018-Apr-19 15:54N 10°59' W 074°45'3 8.7
2018-Apr-19 15:30N 11°01' W 074°47'2 2.8
2018-Apr-19 14:48N 11°02' W 074°49'0 1.4
2018-Apr-19 14:29N 11°03' W 074°49'2 3.1
2018-Apr-19 14:00N 11°02' W 074°48'4 9.0
2018-Apr-19 13:30N 10°58' W 074°46'0 0.0
2018-Apr-19 13:00N 10°58' W 074°46'0 0.0
2018-Apr-19 12:30N 10°58' W 074°46'0 0.0
2018-Apr-19 11:59N 10°58' W 074°46'0 0.0
2018-Apr-19 11:30N 10°58' W 074°46'0 0.0
2018-Apr-19 11:00N 10°58' W 074°46'0 0.0
2018-Apr-19 10:30N 10°58' W 074°46'0 0.0
2018-Apr-19 10:00N 10°58' W 074°46'0 0.0
2018-Apr-19 09:30N 10°58' W 074°46'4 6.8
2018-Apr-19 08:58N 11°01' W 074°47'2 2.7
2018-Apr-19 08:24N 11°02' W 074°49'511.7
2018-Apr-19 07:58N 10°58' W 074°46'0 0.0
2018-Apr-19 07:30N 10°58' W 074°46'0 0.0
2018-Apr-19 07:00N 10°58' W 074°46'0 0.0
2018-Apr-19 06:30N 10°58' W 074°46'0 0.0
2018-Apr-19 06:01N 10°58' W 074°46'0 0.0
2018-Apr-19 05:30N 10°58' W 074°46'0 0.0
2018-Apr-19 05:00N 10°58' W 074°46'0 0.0
2018-Apr-19 04:30N 10°58' W 074°46'0 0.0
2018-Apr-19 04:00N 10°58' W 074°46'0 0.0
2018-Apr-19 03:31N 10°58' W 074°46'0 0.0
2018-Apr-19 03:00N 10°58' W 074°46'3 6.8
2018-Apr-19 02:31N 11°01' W 074°47'1 2.1
2018-Apr-19 02:00N 11°02' W 074°48'0 0.8
2018-Apr-19 01:30N 11°02' W 074°48'4 8.0
2018-Apr-19 01:00N 10°58' W 074°46'0 0.0
2018-Apr-19 00:30N 10°58' W 074°46'0 0.0
2018-Apr-19 00:00N 10°58' W 074°46'0 0.0
2018-Apr-18 23:30N 10°58' W 074°46'0 0.0
2018-Apr-18 23:00N 10°58' W 074°46'0 0.0
2018-Apr-18 22:30N 10°58' W 074°46'0 0.0
2018-Apr-18 22:00N 10°58' W 074°46'0 0.7
2018-Apr-18 21:30N 10°58' W 074°46'0 0.6
2018-Apr-18 21:00N 10°58' W 074°46'0 0.0
2018-Apr-18 20:30N 10°58' W 074°46'0 0.0
2018-Apr-18 20:00N 10°58' W 074°46'0 0.0
2018-Apr-18 19:30N 10°58' W 074°46'0 0.0
2018-Apr-18 19:01N 10°58' W 074°46'0 0.0
2018-Apr-18 18:29N 10°58' W 074°46'0 0.0
2018-Apr-18 18:00N 10°58' W 074°46'0 0.0
2018-Apr-18 17:30N 10°58' W 074°46'0 0.0
2018-Apr-18 17:00N 10°58' W 074°46'0 0.0
2018-Apr-18 16:30N 10°58' W 074°46'0 0.0
2018-Apr-18 16:00N 10°58' W 074°46'0 0.0
2018-Apr-18 15:30N 10°58' W 074°46'0 0.0
2018-Apr-18 15:00N 10°58' W 074°46'0 0.0
2018-Apr-18 14:31N 10°58' W 074°46'0 0.1
2018-Apr-18 14:01N 10°58' W 074°45'0 0.7
2018-Apr-18 13:30N 10°58' W 074°45'1 1.4
2018-Apr-18 13:00N 10°59' W 074°45'0 0.8
2018-Apr-18 12:30N 10°58' W 074°46'0 0.0
2018-Apr-18 12:00N 10°58' W 074°46'0 0.0
2018-Apr-18 11:30N 10°58' W 074°46'0 0.0
2018-Apr-18 10:51N 10°58' W 074°46'0 0.0
2018-Apr-18 10:30N 10°58' W 074°46'0 0.0
2018-Apr-18 10:00N 10°58' W 074°46'0 0.0
2018-Apr-18 09:28N 10°58' W 074°46'0 0.0
2018-Apr-18 09:00N 10°58' W 074°46'0 0.0
2018-Apr-18 08:29N 10°58' W 074°46'0 0.0
2018-Apr-18 06:17N 10°58' W 074°46'0 0.0
2018-Apr-18 06:00N 10°58' W 074°46'0 0.0
2018-Apr-18 05:23N 10°58' W 074°46'0 0.0
2018-Apr-18 04:55N 10°58' W 074°46'0 0.0
2018-Apr-18 04:28N 10°58' W 074°46'0 0.0
2018-Apr-18 02:56N 10°58' W 074°46'1 0.1
2018-Apr-17 18:07N 10°60' W 074°46'0 0.0
2018-Apr-17 17:46N 10°60' W 074°46'0 1.5
2018-Apr-17 17:27N 10°60' W 074°46'1 3.2
2018-Apr-17 17:00N 10°59' W 074°45'0 0.4
2018-Apr-17 16:14N 10°59' W 074°45'0 0.4
2018-Apr-17 16:00N 10°59' W 074°45'1 1.1
2018-Apr-17 15:29N 10°58' W 074°45'2 0.4
2018-Apr-17 09:58N 11°01' W 074°46'2 0.1
2018-Apr-16 12:45N 10°59' W 074°45'0 0.1
2018-Apr-16 09:32N 10°58' W 074°46'0 0.0
2018-Apr-16 09:28N 10°58' W 074°46'0 0.0
2018-Apr-16 08:56N 10°58' W 074°46'0 0.0
2018-Apr-16 08:20N 10°58' W 074°46'0 0.0
2018-Apr-16 08:00N 10°58' W 074°46'0 0.0
2018-Apr-16 07:29N 10°58' W 074°46'0 0.0
2018-Apr-16 07:00N 10°58' W 074°46'0 0.0
2018-Apr-16 05:13N 10°58' W 074°46'0 0.0
2018-Apr-16 05:00N 10°58' W 074°46'0 0.0
2018-Apr-16 04:28N 10°58' W 074°46'0 0.0
2018-Apr-16 03:57N 10°58' W 074°46'0 0.0
2018-Apr-16 03:29N 10°58' W 074°46'0 0.0
2018-Apr-16 02:56N 10°58' W 074°46'0 0.0
2018-Apr-16 02:20N 10°58' W 074°46'  

Dump ship's entire track history